Mac Dill Air Force Base
KMCF : now visible

Airfield :











YOU CAN JOIN US ON...

 
LOGIN :

Register | Disclaimer

   EN    FR    IT 

 









Legend :    VFR   Marginal VFR   IFR   Intensive IFR   Very Intensive IFR
Visi :
Ceiling :
>= 8 km
>= 3000ft
5 to 8 km
1000 to 3000 ft
1500m to 5 km
500 to 1000 ft
800 to 1500m
200 to 500 ft
< 800m
< 200 ft
Symbols :   Thunderstorms  Fog  Heavy snow  Heavy precipitations  Wind > 20 kt






- Airport Elevation : 14 ft


KMCF - Mac Dill Air Force Base

CURRENT METAR :
  • 021056Z AUTO 13003KT 10SM FEW170 26/24 A3000 RMK AO2 SLP162 T02560236 FZRANO $

EXPIRED METARs :
  • 020956Z AUTO 12003KT 10SM CLR 25/23 A2998 RMK AO2 SLP155 T02520230 FZRANO $
  • 020856Z AUTO 10004KT 10SM CLR 25/23 A2998 RMK AO2 SLP155 T02540227 56011 FZRANO $

TAF TAF KMCF
Valid from the 01 at 17:00 until the 02 at 23:00 UTC


012130Z 0117/0223 20009KT 9999 VCTS FEW035CB BKN110 QNH2999INS
TEMPO 0118/0120 22010G15KT 8000 -TSRA SCT030CB
TEMPO 0122/0202 22015G25KT 6000 TSRA BKN020CB
BECMG 0202/0203 VRB06KT 9999 NSW SCT020 QNH3003INS
BECMG 0213/0214 10009KT 9999 VCSH SCT040 QNH3009INS
BECMG 0217/0218 21009KT 9999 VCTS FEW040CB QNH2998INS TX32/0120Z TN24/0211Z LAST NO AMDS AFT 0121 NEXT 0510
KZMA FIR / North America



MET'MAP, your aeronautical weather chart ! - Copyright ORBIFLY December 2007 - Disclaimer

ORBIFLY MET'MAP TEAM :

Programming & Development : Alexandra Zaïnal
Original concept : Baudouin d'Aumeries
Technical & hardware support : Manuel Goepfert
Assistance : Marc-Olivier Méhu




SOURCES & CREDITS :

   NOAA       Earth
Advisory